Leon Hermes — A8OK8 — position and weather

sailwx.info

Track history (hours):
 
Tides and Currents Weather Stations Pressure Air Temp Water Temp Dewpoint Dewpoint Depression Visibility Wind Speed Wind Dir Waves Ship Positions

Leon Hermes

Last reported at 2018-Jul-17 13:37 UTC. Time now 2018-Jul-23 06:11 UTC.
Position N 36°32' E 024°21'.

Length 176 m; draft 10.3 m.

Type: Ship (hazmat cat A). MMSI: 636013645.

Date/timePositionNaut miles runAvg speedWind from/ knotsBaromVisibWave heightAir tempDewpointWater temp
2018-Jul-17 13:37N 36°32' E 024°21'112.9
2018-Jul-17 13:30N 36°33' E 024°20'612.8
2018-Jul-17 13:00N 36°36' E 024°13'612.1
2018-Jul-17 12:30N 36°41' E 024°09'612.8
2018-Jul-17 12:00N 36°47' E 024°06'713.0
2018-Jul-17 11:30N 36°53' E 024°04'612.9
2018-Jul-17 11:00N 36°60' E 024°02'612.4
2018-Jul-17 10:30N 37°06' E 023°59'612.3
2018-Jul-17 10:00N 37°11' E 023°57'612.6
2018-Jul-17 09:30N 37°17' E 023°54'612.8
2018-Jul-17 09:00N 37°24' E 023°52'612.7
2018-Jul-17 08:30N 37°29' E 023°49'612.8
2018-Jul-17 08:00N 37°35' E 023°46'612.5
2018-Jul-17 07:30N 37°41' E 023°42'612.4
2018-Jul-17 07:00N 37°46' E 023°38'612.0
2018-Jul-17 06:30N 37°52' E 023°36'4 7.1
2018-Jul-17 06:00N 37°55' E 023°35'5 6.9
2018-Jul-17 05:20N 37°60' E 023°33'1 3.2
2018-Jul-17 05:00N 38°01' E 023°32'0 0.0
2018-Jul-17 04:29N 38°01' E 023°32'0 0.0
2018-Jul-17 03:56N 38°01' E 023°32'0 0.0
2018-Jul-17 03:29N 38°01' E 023°32'0 0.0
2018-Jul-17 02:56N 38°01' E 023°32'0 0.0
2018-Jul-17 02:29N 38°01' E 023°32'0 0.0
2018-Jul-17 01:59N 38°01' E 023°32'0 0.0
2018-Jul-17 01:29N 38°01' E 023°32'0 0.0
2018-Jul-17 00:59N 38°01' E 023°32'0 0.0
2018-Jul-17 00:26N 38°01' E 023°32'0 0.0
2018-Jul-16 23:29N 38°01' E 023°32'0 0.1
2018-Jul-16 22:53N 38°01' E 023°32'0 0.0
2018-Jul-16 22:23N 38°01' E 023°32'0 0.1
2018-Jul-16 21:59N 38°01' E 023°32'0 0.2
2018-Jul-16 21:29N 38°01' E 023°32'0 0.1
2018-Jul-16 20:59N 38°01' E 023°32'0 0.1
2018-Jul-16 20:29N 38°01' E 023°33'1 2.8
2018-Jul-16 20:00N 38°01' E 023°34'1 2.6
2018-Jul-16 19:30N 38°02' E 023°36'0 0.0
2018-Jul-15 09:26N 38°02' E 023°36'0 0.0
2018-Jul-15 09:00N 38°02' E 023°36'2 3.5
2018-Jul-15 08:30N 38°01' E 023°34'1 2.5
2018-Jul-15 07:59N 38°01' E 023°32'0 0.0
2018-Jul-15 07:29N 38°01' E 023°32'0 0.1
2018-Jul-15 06:59N 38°01' E 023°32'0 0.0
2018-Jul-15 06:29N 38°01' E 023°32'0 0.0
2018-Jul-15 05:59N 38°01' E 023°32'0 0.0
2018-Jul-15 05:29N 38°01' E 023°32'0 0.0
2018-Jul-15 04:59N 38°01' E 023°32'0 0.0
2018-Jul-15 04:29N 38°01' E 023°32'0 0.1
2018-Jul-15 03:59N 38°01' E 023°32'0 0.0
2018-Jul-15 03:29N 38°01' E 023°32'0 0.0
2018-Jul-15 02:59N 38°01' E 023°32'0 0.0
2018-Jul-15 02:29N 38°01' E 023°32'0 0.0
2018-Jul-15 01:59N 38°01' E 023°32'0 0.0
2018-Jul-15 01:29N 38°01' E 023°32'0 0.0
2018-Jul-15 00:59N 38°01' E 023°32'0 0.0
2018-Jul-15 00:29N 38°01' E 023°32'0 0.0
2018-Jul-14 23:59N 38°01' E 023°32'0 0.0
2018-Jul-14 23:29N 38°01' E 023°32'0 0.0
2018-Jul-14 22:59N 38°01' E 023°32'0 0.0
2018-Jul-14 22:29N 38°01' E 023°32'0 0.0
2018-Jul-14 21:59N 38°01' E 023°32'0 0.0
2018-Jul-14 21:29N 38°01' E 023°32'0 0.0
2018-Jul-14 20:59N 38°01' E 023°32'0 0.0
2018-Jul-14 20:29N 38°01' E 023°32'0 0.0
2018-Jul-14 19:59N 38°01' E 023°32'0 0.0
2018-Jul-14 19:29N 38°01' E 023°32'0 0.0
2018-Jul-14 18:59N 38°01' E 023°32'0 0.0
2018-Jul-14 18:29N 38°01' E 023°32'0 0.0
2018-Jul-14 17:59N 38°01' E 023°32'0 0.0
2018-Jul-14 17:29N 38°01' E 023°32'0 0.0
2018-Jul-14 16:59N 38°01' E 023°32'0 0.0
2018-Jul-14 16:29N 38°01' E 023°32'0 0.0
2018-Jul-14 15:59N 38°01' E 023°32'0 0.1
2018-Jul-14 15:29N 38°01' E 023°32'0 0.0
2018-Jul-14 14:59N 38°01' E 023°32'0 0.1
2018-Jul-14 14:29N 38°01' E 023°32'0 0.0
2018-Jul-14 13:29N 38°01' E 023°32'0 0.0
2018-Jul-14 12:59N 38°01' E 023°32'0 0.0
2018-Jul-14 12:28N 38°01' E 023°32'0 0.0
2018-Jul-14 11:59N 38°01' E 023°32'0 0.0
2018-Jul-14 11:29N 38°01' E 023°32'0 0.0
2018-Jul-14 10:59N 38°01' E 023°32'0 0.0
2018-Jul-14 10:29N 38°01' E 023°32'0 0.0
2018-Jul-14 09:58N 38°01' E 023°32'0 0.0
2018-Jul-14 09:29N 38°01' E 023°32'0 0.0
2018-Jul-14 08:59N 38°01' E 023°32'0 0.0
2018-Jul-14 08:29N 38°01' E 023°32'0 0.1
2018-Jul-14 07:59N 38°01' E 023°32'0 0.0
2018-Jul-14 07:28N 38°01' E 023°32'0 0.0
2018-Jul-14 06:58N 38°01' E 023°32'0 0.0
2018-Jul-14 06:28N 38°01' E 023°32'0 0.1
2018-Jul-14 05:58N 38°01' E 023°32'0 0.0
2018-Jul-14 05:28N 38°01' E 023°32'0 0.0
2018-Jul-14 04:58N 38°01' E 023°32'0 0.0
2018-Jul-14 04:28N 38°01' E 023°32'0 0.0
2018-Jul-14 03:58N 38°01' E 023°32'0 0.0
2018-Jul-14 03:29N 38°01' E 023°32'0 0.0
2018-Jul-14 02:58N 38°01' E 023°32'0 0.0
2018-Jul-14 02:29N 38°01' E 023°32'0 0.1
2018-Jul-14 01:58N 38°01' E 023°32'0 0.0
2018-Jul-14 01:29N 38°01' E 023°32'0 0.0
2018-Jul-14 00:59N 38°01' E 023°32'0 0.1
2018-Jul-14 00:28N 38°01' E 023°32'0 0.0
2018-Jul-13 23:58N 38°01' E 023°32'0 0.1
2018-Jul-13 23:28N 38°01' E 023°32'0 0.1
2018-Jul-13 22:58N 38°01' E 023°32'0 0.1
2018-Jul-13 22:28N 38°01' E 023°32'0 0.1
2018-Jul-13 21:58N 38°01' E 023°32'0 0.1
2018-Jul-13 21:28N 38°01' E 023°32'0 0.1
2018-Jul-13 20:58N 38°01' E 023°32'0 0.0
2018-Jul-13 20:28N 38°01' E 023°32'0 0.1
2018-Jul-13 19:58N 38°01' E 023°32'0 0.0
2018-Jul-13 19:28N 38°01' E 023°32'0 0.0
2018-Jul-13 18:58N 38°01' E 023°32'0 0.0
2018-Jul-13 18:28N 38°01' E 023°32'0 0.0
2018-Jul-13 17:58N 38°01' E 023°32'0 0.1
2018-Jul-13 17:28N 38°01' E 023°32'0 0.1
2018-Jul-13 16:58N 38°01' E 023°32'0 0.0
2018-Jul-13 16:29N 38°01' E 023°32'0 0.0
2018-Jul-13 15:59N 38°01' E 023°32'0 0.0
2018-Jul-13 15:29N 38°01' E 023°32'0 0.0
2018-Jul-13 14:58N 38°01' E 023°32'0 0.0
2018-Jul-13 14:29N 38°01' E 023°32'0 0.0
2018-Jul-13 13:29N 38°01' E 023°32'0 0.2
2018-Jul-13 12:58N 38°01' E 023°32'0 0.1
2018-Jul-13 12:28N 38°01' E 023°32'0 0.0
2018-Jul-13 11:58N 38°01' E 023°32'0 0.0
2018-Jul-13 11:28N 38°01' E 023°32'0 0.1
2018-Jul-13 10:59N 38°01' E 023°32'0 0.2
2018-Jul-13 10:28N 38°01' E 023°32'0 0.1
2018-Jul-13 09:58N 38°01' E 023°32'0 0.0
2018-Jul-13 09:28N 38°01' E 023°32'0 0.0
2018-Jul-13 08:59N 38°01' E 023°32'0 0.0
2018-Jul-13 08:25N 38°01' E 023°32'0 0.1
2018-Jul-13 07:58N 38°01' E 023°32'0 0.2
2018-Jul-13 07:30N 38°01' E 023°32'3 5.8
2018-Jul-13 07:00N 37°58' E 023°33'4 7.1
2018-Jul-13 06:30N 37°56' E 023°36'1 1.6
2018-Jul-13 06:00N 37°55' E 023°36'1 2.3
2018-Jul-13 05:30N 37°54' E 023°34'1 2.9
2018-Jul-13 05:00N 37°53' E 023°33'0 0.1
2018-Jul-13 04:30N 37°53' E 023°33'0 0.0
2018-Jul-13 04:00N 37°53' E 023°33'0 0.0
2018-Jul-13 03:30N 37°53' E 023°33'0 0.1
2018-Jul-13 03:00N 37°53' E 023°33'0 0.0
2018-Jul-13 02:30N 37°53' E 023°33'0 0.1
2018-Jul-13 02:00N 37°53' E 023°33'0 0.0
2018-Jul-13 01:30N 37°53' E 023°33'0 0.0
2018-Jul-13 01:00N 37°53' E 023°33'0 0.0
2018-Jul-13 00:30N 37°53' E 023°33'0 0.1
2018-Jul-13 00:00N 37°53' E 023°33'0 0.0
2018-Jul-12 23:30N 37°53' E 023°33'0 0.1
2018-Jul-12 23:00N 37°53' E 023°33'0 0.1
2018-Jul-12 22:30N 37°53' E 023°33'0 0.0
2018-Jul-12 22:00N 37°53' E 023°33'0 0.0
2018-Jul-12 21:30N 37°53' E 023°33'0 0.0
2018-Jul-12 21:00N 37°53' E 023°33'0 0.0
2018-Jul-12 20:30N 37°53' E 023°33'0 0.1
2018-Jul-12 20:00N 37°53' E 023°33'0 0.1
2018-Jul-12 19:30N 37°53' E 023°33'0 0.1
2018-Jul-12 19:00N 37°53' E 023°33'1 2.5
2018-Jul-12 18:31N 37°54' E 023°34'3 6.6
2018-Jul-12 18:00N 37°52' E 023°37'510.0
2018-Jul-12 17:30N 37°48' E 023°41'510.6
2018-Jul-12 17:00N 37°43' E 023°44'5 9.9
2018-Jul-12 16:30N 37°38' E 023°46'5 9.1
2018-Jul-12 15:59N 37°33' E 023°46'6 2.9
2018-Jul-12 13:50N 37°28' E 023°50'0 0.1
2018-Jul-12 10:36N 37°28' E 023°50'0 0.4
2018-Jul-12 09:52N 37°28' E 023°50'0 0.3
2018-Jul-12 09:25N 37°28' E 023°50'0 0.4
2018-Jul-12 09:00N 37°28' E 023°50'0 0.6
2018-Jul-12 08:30N 37°28' E 023°50'0 0.7
2018-Jul-12 08:00N 37°29' E 023°50'1 0.8
2018-Jul-12 07:04N 37°29' E 023°50'0 0.9
2018-Jul-12 07:00N 37°29' E 023°50'1 0.9
2018-Jul-12 05:57N 37°30' E 023°49'0 0.9
2018-Jul-12 05:30N 37°31' E 023°49'1 1.0
2018-Jul-12 04:16N 37°32' E 023°48'0 0.9
2018-Jul-12 04:00N 37°32' E 023°48'0 0.9
2018-Jul-12 03:30N 37°33' E 023°48'2 1.2
2018-Jul-12 01:56N 37°33' E 023°51'0 0.7
2018-Jul-12 01:30N 37°33' E 023°51'0 0.7
2018-Jul-12 00:57N 37°33' E 023°51'0 0.7
2018-Jul-12 00:30N 37°33' E 023°51'0 0.4
2018-Jul-11 23:50N 37°34' E 023°50'0 0.4
2018-Jul-11 23:30N 37°34' E 023°50'0 0.2
2018-Jul-11 23:00N 37°34' E 023°50'0 0.2
2018-Jul-11 22:24N 37°34' E 023°50'0 0.3
2018-Jul-11 22:00N 37°34' E 023°50'0 0.6
2018-Jul-11 21:28N 37°34' E 023°50'0 0.6
2018-Jul-11 21:00N 37°33' E 023°50'0 0.6
2018-Jul-11 20:30N 37°33' E 023°50'0 0.6
2018-Jul-11 20:00N 37°33' E 023°50'0 0.6
2018-Jul-11 19:30N 37°33' E 023°49'0 0.5
2018-Jul-11 19:00N 37°32' E 023°49'0 0.1
2018-Jul-11 18:30N 37°32' E 023°49'2 3.8
2018-Jul-11 18:00N 37°34' E 023°50'611.6
2018-Jul-11 17:30N 37°40' E 023°51'0 0.5
2018-Jul-11 17:00N 37°40' E 023°51'0 1.0
2018-Jul-11 16:30N 37°40' E 023°51'0 0.9
2018-Jul-11 16:00N 37°39' E 023°51'0 1.0
2018-Jul-11 15:30N 37°39' E 023°50'1 0.9
2018-Jul-11 14:48N 37°38' E 023°50'0 0.8
2018-Jul-11 14:30N 37°38' E 023°50'0 0.5
2018-Jul-11 14:00N 37°38' E 023°50'0 0.8
2018-Jul-11 13:30N 37°38' E 023°50'5 9.8
2018-Jul-11 13:00N 37°34' E 023°47'714.4
2018-Jul-11 12:30N 37°27' E 023°46'913.5
2018-Jul-11 11:49N 37°18' E 023°43'57212.1
2018-Jul-09 12:27N 33°24' E 013°02'612.7
2018-Jul-09 12:00N 33°19' E 012°59'612.8
2018-Jul-09 11:30N 33°14' E 012°55'1912.6
2018-Jul-09 10:02N 32°57' E 012°44'9 8.2
2018-Jul-09 08:57N 32°49' E 012°40'  
Track history (hours):
 
Tides and Currents Weather Stations Pressure Air Temp Water Temp Dewpoint Dewpoint Depression Visibility Wind Speed Wind Dir Waves Ship Positions

Leon Hermes

Last reported at 2018-Jul-17 13:37 UTC. Time now 2018-Jul-23 06:11 UTC.
Position N 36°32' E 024°21'.

Length 176 m; draft 10.3 m.

Type: Ship (hazmat cat A). MMSI: 636013645.

Date/timePositionNaut miles runAvg speedWind from/ knotsBaromVisibWave heightAir tempDewpointWater temp
2018-Jul-17 13:37N 36°32' E 024°21'112.9
2018-Jul-17 13:30N 36°33' E 024°20'612.8
2018-Jul-17 13:00N 36°36' E 024°13'612.1
2018-Jul-17 12:30N 36°41' E 024°09'612.8
2018-Jul-17 12:00N 36°47' E 024°06'713.0
2018-Jul-17 11:30N 36°53' E 024°04'612.9
2018-Jul-17 11:00N 36°60' E 024°02'612.4
2018-Jul-17 10:30N 37°06' E 023°59'612.3
2018-Jul-17 10:00N 37°11' E 023°57'612.6
2018-Jul-17 09:30N 37°17' E 023°54'612.8
2018-Jul-17 09:00N 37°24' E 023°52'612.7
2018-Jul-17 08:30N 37°29' E 023°49'612.8
2018-Jul-17 08:00N 37°35' E 023°46'612.5
2018-Jul-17 07:30N 37°41' E 023°42'612.4
2018-Jul-17 07:00N 37°46' E 023°38'612.0
2018-Jul-17 06:30N 37°52' E 023°36'4 7.1
2018-Jul-17 06:00N 37°55' E 023°35'5 6.9
2018-Jul-17 05:20N 37°60' E 023°33'1 3.2
2018-Jul-17 05:00N 38°01' E 023°32'0 0.0
2018-Jul-17 04:29N 38°01' E 023°32'0 0.0
2018-Jul-17 03:56N 38°01' E 023°32'0 0.0
2018-Jul-17 03:29N 38°01' E 023°32'0 0.0
2018-Jul-17 02:56N 38°01' E 023°32'0 0.0
2018-Jul-17 02:29N 38°01' E 023°32'0 0.0
2018-Jul-17 01:59N 38°01' E 023°32'0 0.0
2018-Jul-17 01:29N 38°01' E 023°32'0 0.0
2018-Jul-17 00:59N 38°01' E 023°32'0 0.0
2018-Jul-17 00:26N 38°01' E 023°32'0 0.0
2018-Jul-16 23:29N 38°01' E 023°32'0 0.1
2018-Jul-16 22:53N 38°01' E 023°32'0 0.0
2018-Jul-16 22:23N 38°01' E 023°32'0 0.1
2018-Jul-16 21:59N 38°01' E 023°32'0 0.2
2018-Jul-16 21:29N 38°01' E 023°32'0 0.1
2018-Jul-16 20:59N 38°01' E 023°32'0 0.1
2018-Jul-16 20:29N 38°01' E 023°33'1 2.8
2018-Jul-16 20:00N 38°01' E 023°34'1 2.6
2018-Jul-16 19:30N 38°02' E 023°36'0 0.0
2018-Jul-15 09:26N 38°02' E 023°36'0 0.0
2018-Jul-15 09:00N 38°02' E 023°36'2 3.5
2018-Jul-15 08:30N 38°01' E 023°34'1 2.5
2018-Jul-15 07:59N 38°01' E 023°32'0 0.0
2018-Jul-15 07:29N 38°01' E 023°32'0 0.1
2018-Jul-15 06:59N 38°01' E 023°32'0 0.0
2018-Jul-15 06:29N 38°01' E 023°32'0 0.0
2018-Jul-15 05:59N 38°01' E 023°32'0 0.0
2018-Jul-15 05:29N 38°01' E 023°32'0 0.0
2018-Jul-15 04:59N 38°01' E 023°32'0 0.0
2018-Jul-15 04:29N 38°01' E 023°32'0 0.1
2018-Jul-15 03:59N 38°01' E 023°32'0 0.0
2018-Jul-15 03:29N 38°01' E 023°32'0 0.0
2018-Jul-15 02:59N 38°01' E 023°32'0 0.0
2018-Jul-15 02:29N 38°01' E 023°32'0 0.0
2018-Jul-15 01:59N 38°01' E 023°32'0 0.0
2018-Jul-15 01:29N 38°01' E 023°32'0 0.0
2018-Jul-15 00:59N 38°01' E 023°32'0 0.0
2018-Jul-15 00:29N 38°01' E 023°32'0 0.0
2018-Jul-14 23:59N 38°01' E 023°32'0 0.0
2018-Jul-14 23:29N 38°01' E 023°32'0 0.0
2018-Jul-14 22:59N 38°01' E 023°32'0 0.0
2018-Jul-14 22:29N 38°01' E 023°32'0 0.0
2018-Jul-14 21:59N 38°01' E 023°32'0 0.0
2018-Jul-14 21:29N 38°01' E 023°32'0 0.0
2018-Jul-14 20:59N 38°01' E 023°32'0 0.0
2018-Jul-14 20:29N 38°01' E 023°32'0 0.0
2018-Jul-14 19:59N 38°01' E 023°32'0 0.0
2018-Jul-14 19:29N 38°01' E 023°32'0 0.0
2018-Jul-14 18:59N 38°01' E 023°32'0 0.0
2018-Jul-14 18:29N 38°01' E 023°32'0 0.0
2018-Jul-14 17:59N 38°01' E 023°32'0 0.0
2018-Jul-14 17:29N 38°01' E 023°32'0 0.0
2018-Jul-14 16:59N 38°01' E 023°32'0 0.0
2018-Jul-14 16:29N 38°01' E 023°32'0 0.0
2018-Jul-14 15:59N 38°01' E 023°32'0 0.1
2018-Jul-14 15:29N 38°01' E 023°32'0 0.0
2018-Jul-14 14:59N 38°01' E 023°32'0 0.1
2018-Jul-14 14:29N 38°01' E 023°32'0 0.0
2018-Jul-14 13:29N 38°01' E 023°32'0 0.0
2018-Jul-14 12:59N 38°01' E 023°32'0 0.0
2018-Jul-14 12:28N 38°01' E 023°32'0 0.0
2018-Jul-14 11:59N 38°01' E 023°32'0 0.0
2018-Jul-14 11:29N 38°01' E 023°32'0 0.0
2018-Jul-14 10:59N 38°01' E 023°32'0 0.0
2018-Jul-14 10:29N 38°01' E 023°32'0 0.0
2018-Jul-14 09:58N 38°01' E 023°32'0 0.0
2018-Jul-14 09:29N 38°01' E 023°32'0 0.0
2018-Jul-14 08:59N 38°01' E 023°32'0 0.0
2018-Jul-14 08:29N 38°01' E 023°32'0 0.1
2018-Jul-14 07:59N 38°01' E 023°32'0 0.0
2018-Jul-14 07:28N 38°01' E 023°32'0 0.0
2018-Jul-14 06:58N 38°01' E 023°32'0 0.0
2018-Jul-14 06:28N 38°01' E 023°32'0 0.1
2018-Jul-14 05:58N 38°01' E 023°32'0 0.0
2018-Jul-14 05:28N 38°01' E 023°32'0 0.0
2018-Jul-14 04:58N 38°01' E 023°32'0 0.0
2018-Jul-14 04:28N 38°01' E 023°32'0 0.0
2018-Jul-14 03:58N 38°01' E 023°32'0 0.0
2018-Jul-14 03:29N 38°01' E 023°32'0 0.0
2018-Jul-14 02:58N 38°01' E 023°32'0 0.0
2018-Jul-14 02:29N 38°01' E 023°32'0 0.1
2018-Jul-14 01:58N 38°01' E 023°32'0 0.0
2018-Jul-14 01:29N 38°01' E 023°32'0 0.0
2018-Jul-14 00:59N 38°01' E 023°32'0 0.1
2018-Jul-14 00:28N 38°01' E 023°32'0 0.0
2018-Jul-13 23:58N 38°01' E 023°32'0 0.1
2018-Jul-13 23:28N 38°01' E 023°32'0 0.1
2018-Jul-13 22:58N 38°01' E 023°32'0 0.1
2018-Jul-13 22:28N 38°01' E 023°32'0 0.1
2018-Jul-13 21:58N 38°01' E 023°32'0 0.1
2018-Jul-13 21:28N 38°01' E 023°32'0 0.1
2018-Jul-13 20:58N 38°01' E 023°32'0 0.0
2018-Jul-13 20:28N 38°01' E 023°32'0 0.1
2018-Jul-13 19:58N 38°01' E 023°32'0 0.0
2018-Jul-13 19:28N 38°01' E 023°32'0 0.0
2018-Jul-13 18:58N 38°01' E 023°32'0 0.0
2018-Jul-13 18:28N 38°01' E 023°32'0 0.0
2018-Jul-13 17:58N 38°01' E 023°32'0 0.1
2018-Jul-13 17:28N 38°01' E 023°32'0 0.1
2018-Jul-13 16:58N 38°01' E 023°32'0 0.0
2018-Jul-13 16:29N 38°01' E 023°32'0 0.0
2018-Jul-13 15:59N 38°01' E 023°32'0 0.0
2018-Jul-13 15:29N 38°01' E 023°32'0 0.0
2018-Jul-13 14:58N 38°01' E 023°32'0 0.0
2018-Jul-13 14:29N 38°01' E 023°32'0 0.0
2018-Jul-13 13:29N 38°01' E 023°32'0 0.2
2018-Jul-13 12:58N 38°01' E 023°32'0 0.1
2018-Jul-13 12:28N 38°01' E 023°32'0 0.0
2018-Jul-13 11:58N 38°01' E 023°32'0 0.0
2018-Jul-13 11:28N 38°01' E 023°32'0 0.1
2018-Jul-13 10:59N 38°01' E 023°32'0 0.2
2018-Jul-13 10:28N 38°01' E 023°32'0 0.1
2018-Jul-13 09:58N 38°01' E 023°32'0 0.0
2018-Jul-13 09:28N 38°01' E 023°32'0 0.0
2018-Jul-13 08:59N 38°01' E 023°32'0 0.0
2018-Jul-13 08:25N 38°01' E 023°32'0 0.1
2018-Jul-13 07:58N 38°01' E 023°32'0 0.2
2018-Jul-13 07:30N 38°01' E 023°32'3 5.8
2018-Jul-13 07:00N 37°58' E 023°33'4 7.1
2018-Jul-13 06:30N 37°56' E 023°36'1 1.6
2018-Jul-13 06:00N 37°55' E 023°36'1 2.3
2018-Jul-13 05:30N 37°54' E 023°34'1 2.9
2018-Jul-13 05:00N 37°53' E 023°33'0 0.1
2018-Jul-13 04:30N 37°53' E 023°33'0 0.0
2018-Jul-13 04:00N 37°53' E 023°33'0 0.0
2018-Jul-13 03:30N 37°53' E 023°33'0 0.1
2018-Jul-13 03:00N 37°53' E 023°33'0 0.0
2018-Jul-13 02:30N 37°53' E 023°33'0 0.1
2018-Jul-13 02:00N 37°53' E 023°33'0 0.0
2018-Jul-13 01:30N 37°53' E 023°33'0 0.0
2018-Jul-13 01:00N 37°53' E 023°33'0 0.0
2018-Jul-13 00:30N 37°53' E 023°33'0 0.1
2018-Jul-13 00:00N 37°53' E 023°33'0 0.0
2018-Jul-12 23:30N 37°53' E 023°33'0 0.1
2018-Jul-12 23:00N 37°53' E 023°33'0 0.1
2018-Jul-12 22:30N 37°53' E 023°33'0 0.0
2018-Jul-12 22:00N 37°53' E 023°33'0 0.0
2018-Jul-12 21:30N 37°53' E 023°33'0 0.0
2018-Jul-12 21:00N 37°53' E 023°33'0 0.0
2018-Jul-12 20:30N 37°53' E 023°33'0 0.1
2018-Jul-12 20:00N 37°53' E 023°33'0 0.1
2018-Jul-12 19:30N 37°53' E 023°33'0 0.1
2018-Jul-12 19:00N 37°53' E 023°33'1 2.5
2018-Jul-12 18:31N 37°54' E 023°34'3 6.6
2018-Jul-12 18:00N 37°52' E 023°37'510.0
2018-Jul-12 17:30N 37°48' E 023°41'510.6
2018-Jul-12 17:00N 37°43' E 023°44'5 9.9
2018-Jul-12 16:30N 37°38' E 023°46'5 9.1
2018-Jul-12 15:59N 37°33' E 023°46'6 2.9
2018-Jul-12 13:50N 37°28' E 023°50'0 0.1
2018-Jul-12 10:36N 37°28' E 023°50'0 0.4
2018-Jul-12 09:52N 37°28' E 023°50'0 0.3
2018-Jul-12 09:25N 37°28' E 023°50'0 0.4
2018-Jul-12 09:00N 37°28' E 023°50'0 0.6
2018-Jul-12 08:30N 37°28' E 023°50'0 0.7
2018-Jul-12 08:00N 37°29' E 023°50'1 0.8
2018-Jul-12 07:04N 37°29' E 023°50'0 0.9
2018-Jul-12 07:00N 37°29' E 023°50'1 0.9
2018-Jul-12 05:57N 37°30' E 023°49'0 0.9
2018-Jul-12 05:30N 37°31' E 023°49'1 1.0
2018-Jul-12 04:16N 37°32' E 023°48'0 0.9
2018-Jul-12 04:00N 37°32' E 023°48'0 0.9
2018-Jul-12 03:30N 37°33' E 023°48'2 1.2
2018-Jul-12 01:56N 37°33' E 023°51'0 0.7
2018-Jul-12 01:30N 37°33' E 023°51'0 0.7
2018-Jul-12 00:57N 37°33' E 023°51'0 0.7
2018-Jul-12 00:30N 37°33' E 023°51'0 0.4
2018-Jul-11 23:50N 37°34' E 023°50'0 0.4
2018-Jul-11 23:30N 37°34' E 023°50'0 0.2
2018-Jul-11 23:00N 37°34' E 023°50'0 0.2
2018-Jul-11 22:24N 37°34' E 023°50'0 0.3
2018-Jul-11 22:00N 37°34' E 023°50'0 0.6
2018-Jul-11 21:28N 37°34' E 023°50'0 0.6
2018-Jul-11 21:00N 37°33' E 023°50'0 0.6
2018-Jul-11 20:30N 37°33' E 023°50'0 0.6
2018-Jul-11 20:00N 37°33' E 023°50'0 0.6
2018-Jul-11 19:30N 37°33' E 023°49'0 0.5
2018-Jul-11 19:00N 37°32' E 023°49'0 0.1
2018-Jul-11 18:30N 37°32' E 023°49'2 3.8
2018-Jul-11 18:00N 37°34' E 023°50'611.6
2018-Jul-11 17:30N 37°40' E 023°51'0 0.5
2018-Jul-11 17:00N 37°40' E 023°51'0 1.0
2018-Jul-11 16:30N 37°40' E 023°51'0 0.9
2018-Jul-11 16:00N 37°39' E 023°51'0 1.0
2018-Jul-11 15:30N 37°39' E 023°50'1 0.9
2018-Jul-11 14:48N 37°38' E 023°50'0 0.8
2018-Jul-11 14:30N 37°38' E 023°50'0 0.5
2018-Jul-11 14:00N 37°38' E 023°50'0 0.8
2018-Jul-11 13:30N 37°38' E 023°50'5 9.8
2018-Jul-11 13:00N 37°34' E 023°47'714.4
2018-Jul-11 12:30N 37°27' E 023°46'913.5
2018-Jul-11 11:49N 37°18' E 023°43'57212.1
2018-Jul-09 12:27N 33°24' E 013°02'612.7
2018-Jul-09 12:00N 33°19' E 012°59'612.8
2018-Jul-09 11:30N 33°14' E 012°55'1912.6
2018-Jul-09 10:02N 32°57' E 012°44'9 8.2
2018-Jul-09 08:57N 32°49' E 012°40'  

Dump ship's entire track history